Time;durP1;ratioP1;P1;durP2;ratioP2;P2;SDS_P1;SDS_P2;PMS_P1;PMS_P2;Temp;Humidity;BMP_temperature;BMP_pressure;BME280_temperature;BME280_humidity;BME280_pressure;Samples;Min_cycle;Max_cycle;Signal;HPM_P1;HPM_P2
2022/06/15 00:00:52;;;;;;;2.50;1.20;;;;;;;13.34;66.08;100611.19;6109347;23;20441;-73
2022/06/15 00:03:18;;;;;;;2.00;1.30;;;;;;;13.25;66.24;100586.19;6134931;23;20088;-76
2022/06/15 00:05:44;;;;;;;2.72;1.30;;;;;;;13.27;66.24;100599.66;6131659;23;20236;-72
2022/06/15 00:08:19;;;;;;;2.95;1.67;;;;;;;13.17;66.51;100594.19;6132162;23;20002;-74
2022/06/15 00:10:48;;;;;;;11.13;1.80;;;;;;;13.11;67.07;100590.63;6106268;23;20088;-74
2022/06/15 00:13:16;;;;;;;2.35;1.80;;;;;;;12.96;67.08;100582.44;6130446;23;20010;-72
2022/06/15 00:15:46;;;;;;;3.72;1.80;;;;;;;12.80;67.34;100579.72;6133231;23;20002;-75
2022/06/15 00:18:13;;;;;;;2.60;1.52;;;;;;;12.75;67.85;100580.56;6135752;23;20002;-74
2022/06/15 00:20:58;;;;;;;3.75;1.70;;;;;;;12.67;67.81;100575.63;6132554;23;20030;-74
2022/06/15 00:23:24;;;;;;;2.67;1.85;;;;;;;12.58;68.10;100571.81;6130694;23;20132;-72
2022/06/15 00:28:51;;;;;;;1.65;1.45;;;;;;;12.58;68.70;100586.31;6012613;23;20010;-72
2022/06/15 00:31:24;;;;;;;4.43;2.20;;;;;;;12.37;68.57;100557.28;6114606;23;20006;-73
2022/06/15 00:34:09;;;;;;;;;;;;;;;;;;;;;
2022/06/15 00:36:34;;;;;;;;;;;;;;;12.47;68.71;100592.09;6130410;23;20040;-73
2022/06/15 00:39:02;;;;;;;3.47;1.40;;;;;;;12.47;69.42;100592.09;6101459;23;19913;-72
2022/06/15 00:44:57;;;;;;;2.90;1.75;;;;;;;12.19;69.00;100564.13;6052391;23;20438;-73
2022/06/15 00:51:23;;;;;;;3.60;1.60;;;;;;;12.17;69.02;100569.06;6088027;23;20010;-72
2022/06/15 00:54:26;;;;;;;2.13;1.38;;;;;;;12.02;69.66;100556.19;5989517;23;20039;-72
2022/06/15 01:15:13;;;;;;;3.65;1.60;;;;;;;12.07;70.48;100588.25;5895014;24;20039;-73
2022/06/15 01:47:35;;;;;;;;;;;;;;;;;;;;;
2022/06/15 01:50:35;;;;;;;5.65;1.75;;;;;;;11.57;72.15;100577.69;6163923;23;20047;-72
2022/06/15 01:53:20;;;;;;;;;;;;;;;;;;;;;
2022/06/15 01:56:01;;;;;;;2.78;1.55;;;;;;;11.32;72.20;100559.25;6159064;23;20040;-72
2022/06/15 02:01:30;;;;;;;;;;;;;;;11.36;72.96;100571.31;6138436;23;20036;-73
2022/06/15 02:04:06;;;;;;;3.10;1.92;;;;;;;11.30;73.05;100556.78;6136347;23;19905;-72
2022/06/15 02:14:37;;;;;;;4.28;2.08;;;;;;;11.21;72.67;100558.38;5959708;24;20060;-73
2022/06/15 02:17:11;;;;;;;3.47;1.93;;;;;;;11.11;72.84;100555.59;5947735;24;20016;-74
2022/06/15 02:20:14;;;;;;;2.22;1.60;;;;;;;11.02;73.06;100547.06;6006173;23;20023;-72
2022/06/15 02:22:33;;;;;;;;;;;;;;;11.10;73.03;100568.47;6158789;23;20069;-73
2022/06/15 02:25:08;;;;;;;3.22;1.75;;;;;;;11.07;73.16;100562.69;6138773;23;19908;-71
2022/06/15 02:27:44;;;;;;;3.28;1.40;;;;;;;10.91;73.22;100546.19;6138135;23;19998;-73
2022/06/15 02:34:17;;;;;;;;;;;;;;;;;;;;;
2022/06/15 02:41:03;;;;;;;4.57;2.50;;;;;;;10.79;74.49;100564.72;6113365;23;20016;-75
2022/06/15 02:44:16;;;;;;;;;;;;;;;;;;;;;
2022/06/15 02:47:26;;;;;;;4.80;2.30;;;;;;;10.45;74.42;100532.22;6067792;23;20038;-74
2022/06/15 02:50:41;;;;;;;;;;;;;;;;;;;;;
2022/06/15 02:53:29;;;;;;;3.40;2.17;;;;;;;10.51;74.71;100544.84;6070765;23;20510;-72
2022/06/15 02:59:02;;;;;;;3.17;2.08;;;;;;;10.59;74.65;100555.31;5956606;24;20479;-73
2022/06/15 03:01:37;;;;;;;2.88;1.98;;;;;;;10.54;74.64;100547.06;6032871;23;20014;-72
2022/06/15 03:04:09;;;;;;;4.60;1.92;;;;;;;10.61;74.61;100558.59;6079611;23;20012;-73
2022/06/15 03:06:40;;;;;;;4.53;2.40;;;;;;;10.58;74.82;100563.75;6109255;23;20016;-72
2022/06/15 03:09:23;;;;;;;2.75;2.10;;;;;;;10.54;75.75;100570.84;6134566;23;20421;-74
2022/06/15 03:16:24;;;;;;;3.60;2.10;;;;;;;10.18;76.04;100537.72;6098795;23;20017;-74
2022/06/15 03:18:49;;;;;;;3.67;2.20;;;;;;;10.23;76.27;100557.72;6097287;23;20313;-74
2022/06/15 03:21:21;;;;;;;3.22;1.90;;;;;;;10.17;77.17;100553.31;6133793;23;20009;-72
2022/06/15 03:24:28;;;;;;;2.08;1.63;;;;;;;10.03;76.81;100532.94;6132567;23;20010;-73
2022/06/15 03:27:09;;;;;;;2.13;1.50;;;;;;;10.11;77.21;100549.69;6134113;23;20005;-74
2022/06/15 03:30:08;;;;;;;;;;;;;;;;;;;;;
2022/06/15 03:32:34;;;;;;;1.50;1.40;;;;;;;10.00;76.66;100541.66;6161176;23;20505;-71
2022/06/15 03:35:02;;;;;;;3.60;2.05;;;;;;;10.07;76.49;100555.94;6135232;23;20017;-74
2022/06/15 03:37:31;;;;;;;3.78;1.95;;;;;;;10.02;76.86;100562.19;6132453;23;20017;-76
2022/06/15 03:47:51;;;;;;;2.50;1.80;;;;;;;9.95;76.58;100556.94;6012327;23;20056;-74
2022/06/15 03:50:31;;;;;;;2.10;1.73;;;;;;;9.84;76.77;100555.19;5950284;23;20015;-74
2022/06/15 03:53:04;;;;;;;2.30;1.80;;;;;;;9.73;76.58;100535.13;6011405;23;20083;-74
2022/06/15 03:55:31;;;;;;;3.58;2.00;;;;;;;9.87;77.00;100553.84;6027164;23;20014;-73
2022/06/15 03:58:22;;;;;;;2.35;1.75;;;;;;;9.76;77.04;100544.72;6136459;23;20027;-75
2022/06/15 04:00:57;;;;;;;3.72;1.60;;;;;;;9.83;77.60;100560.88;6131491;23;20068;-73
2022/06/15 04:04:04;;;;;;;2.40;1.20;;;;;;;9.86;76.54;100568.59;6110554;23;20064;-72
2022/06/15 04:06:44;;;;;;;1.73;1.25;;;;;;;9.83;76.38;100561.72;6134620;23;20009;-72
2022/06/15 04:10:19;;;;;;;;;;;;;;;;;;;;;
2022/06/15 04:13:21;;;;;;;;;;;;;;;;;;;;;
2022/06/15 04:24:46;;;;;;;;;;;;;;;;;;;;;
2022/06/15 04:27:08;;;;;;;4.90;2.88;;;;;;;9.57;76.38;100534.16;5851914;23;20022;-73
2022/06/15 04:33:41;;;;;;;;;;;;;;;;;;;;;
2022/06/15 04:39:02;;;;;;;3.70;1.77;;;;;;;9.85;77.47;100558.75;6063987;23;20100;-72
2022/06/15 04:41:32;;;;;;;1.92;1.40;;;;;;;10.06;76.98;100577.00;6137646;23;20009;-72
2022/06/15 04:44:18;;;;;;;2.70;1.88;;;;;;;10.18;76.97;100582.28;6135198;23;20338;-72
2022/06/15 04:46:53;;;;;;;3.05;1.50;;;;;;;10.03;76.94;100552.06;6135074;23;20053;-72
2022/06/15 04:50:13;;;;;;;;;;;;;;;;;;;;;
2022/06/15 04:53:29;;;;;;;4.10;1.70;;;;;;;10.37;76.05;100558.16;6015218;23;20046;-73
2022/06/15 05:31:32;;;;;;;4.07;1.88;;;;;;;11.23;75.07;100572.63;5974881;23;20011;-73
2022/06/15 05:34:57;;;;;;;3.70;1.80;;;;;;;11.59;75.01;100622.06;6039481;23;20007;-71
2022/06/15 05:43:57;;;;;;;;;;;;;;;;;;;;;
2022/06/15 05:47:01;;;;;;;1.98;1.23;;;;;;;12.02;73.78;100570.69;6012577;23;20067;-73
2022/06/15 05:57:19;;;;;;;;;;;;;;;;;;;;;
2022/06/15 06:10:16;;;;;;;2.97;1.35;;;;;;;12.98;70.74;100597.53;5824139;24;20102;-76
2022/06/15 06:13:28;;;;;;;1.58;1.27;;;;;;;13.08;71.21;100594.78;5847617;24;20347;-75
2022/06/15 06:16:20;;;;;;;3.28;1.60;;;;;;;13.14;70.20;100589.25;5885611;24;20178;-76
2022/06/15 06:26:05;;;;;;;5.13;1.58;;;;;;;13.74;69.85;100614.88;5902071;24;20062;-75
2022/06/15 06:29:06;;;;;;;3.72;1.52;;;;;;;13.74;70.19;100598.38;5923074;24;20084;-73
2022/06/15 06:32:34;;;;;;;;;;;;;;;;;;;;;
2022/06/15 06:35:54;;;;;;;7.03;1.90;;;;;;;14.25;69.88;100621.16;5956613;24;20051;-72
2022/06/15 06:38:21;;;;;;;3.67;1.95;;;;;;;14.34;68.91;100605.72;5945943;24;20013;-72
2022/06/15 06:41:34;;;;;;;2.65;1.67;;;;;;;14.58;68.19;100621.47;5988593;23;20011;-75
2022/06/15 06:51:23;;;;;;;;;;;;;;;;;;;;;
2022/06/15 06:54:35;;;;;;;;;;;;;;;;;;;;;
2022/06/15 06:58:44;;;;;;;7.07;2.58;;;;;;;15.37;66.45;100626.75;6008459;23;20209;-75
2022/06/15 07:01:23;;;;;;;5.10;2.00;;;;;;;15.38;66.41;100616.56;5886309;24;20659;-74
2022/06/15 07:03:57;;;;;;;4.05;1.90;;;;;;;15.71;65.65;100639.56;5822628;24;20019;-76
2022/06/15 07:07:13;;;;;;;;;;;;;;;;;;;;;
2022/06/15 07:10:26;;;;;;;2.67;1.38;;;;;;;16.34;64.53;100643.13;5847188;24;20042;-78
2022/06/15 07:12:56;;;;;;;3.70;2.17;;;;;;;16.21;64.30;100622.66;5819662;24;20015;-77
2022/06/15 07:15:45;;;;;;;3.40;1.90;;;;;;;16.58;64.22;100648.56;5820191;24;20011;-77
2022/06/15 07:19:01;;;;;;;;;;;;;;;;;;;;;
2022/06/15 07:22:29;;;;;;;;;;;;;;;16.90;63.62;100656.06;5793157;24;20038;-76
2022/06/15 07:28:26;;;;;;;1.80;0.90;;;;;;;16.99;63.28;100631.31;5792316;24;20379;-76
2022/06/15 07:30:58;;;;;;;1.48;1.33;;;;;;;17.07;63.17;100636.16;5765331;24;20008;-76
2022/06/15 07:33:44;;;;;;;;;;;;;;;;;;;;;
2022/06/15 07:36:39;;;;;;;;;;;;;;;;;;;;;
2022/06/15 07:39:46;;;;;;;3.63;1.33;;;;;;;17.55;63.27;100637.72;5848032;24;20106;-76
2022/06/15 07:42:49;;;;;;;2.05;1.58;;;;;;;17.73;62.88;100655.31;5843925;24;20607;-75
2022/06/15 07:56:22;;;;;;;;;;;;;;;;;;;;;
2022/06/15 07:59:42;;;;;;;1.73;1.20;;;;;;;18.62;59.23;100644.72;5887674;24;20079;-76
2022/06/15 08:16:22;;;;;;;1.20;0.98;;;;;;;19.66;53.56;100640.84;5742389;25;20041;-74
2022/06/15 08:18:57;;;;;;;2.30;1.10;;;;;;;19.95;52.35;100670.00;5724778;25;20015;-73
2022/06/15 08:24:57;;;;;;;;;;;;;;;;;;;;;
2022/06/15 08:27:36;;;;;;;;;;;;;;;;;;;;;
2022/06/15 08:30:11;;;;;;;1.17;1.02;;;;;;;20.56;50.60;100652.59;5841739;24;20030;-74
2022/06/15 08:32:50;;;;;;;2.88;1.30;;;;;;;20.57;49.47;100640.31;5848178;24;20320;-73
2022/06/15 08:35:22;;;;;;;3.80;1.08;;;;;;;20.84;49.48;100632.78;5829448;24;20052;-74
2022/06/15 08:37:53;;;;;;;5.72;1.00;;;;;;;21.04;49.00;100637.63;5851241;24;20325;-75
2022/06/15 08:40:29;;;;;;;3.22;1.40;;;;;;;21.36;48.66;100649.31;5828473;24;20309;-77
2022/06/15 08:43:06;;;;;;;5.45;2.35;;;;;;;21.32;48.02;100634.41;5946192;24;20122;-74
2022/06/15 08:46:24;;;;;;;8.38;2.88;;;;;;;21.50;48.23;100667.72;5939270;24;20842;-75
2022/06/15 08:48:58;;;;;;;6.03;2.45;;;;;;;21.44;47.80;100644.84;6057456;23;20075;-75
2022/06/15 08:52:00;;;;;;;8.95;3.05;;;;;;;21.55;47.93;100662.81;6133847;23;20021;-78
2022/06/15 09:06:01;;;;;;;;;;;;;;;;;;;;;
2022/06/15 10:04:56;;;;;;;;;;;;;;;;;;;;;
2022/06/15 10:28:26;;;;;;;4.15;1.40;;;;;;;44.47;15.23;100650.03;5954200;23;20012;-76
2022/06/15 10:30:57;;;;;;;5.70;1.60;;;;;;;45.88;13.12;100662.78;5977685;23;20018;-75
2022/06/15 10:33:35;;;;;;;4.50;1.83;;;;;;;47.08;12.55;100667.50;6016450;23;20003;-74
2022/06/15 10:36:01;;;;;;;5.22;1.58;;;;;;;47.97;11.58;100669.19;6039874;23;20011;-75
2022/06/15 10:38:28;;;;;;;5.57;1.50;;;;;;;49.06;9.91;100665.00;6126725;23;20006;-74
2022/06/15 10:41:45;;;;;;;3.20;1.23;;;;;;;48.30;8.61;100649.50;6101707;23;20002;-74
2022/06/15 10:43:45;;;;;;;3.13;1.02;;;;;;;46.19;9.78;100664.13;6127018;23;20310;-76
2022/06/15 10:46:21;;;;;;;4.30;0.77;;;;;;;45.06;10.79;100654.09;6079480;23;20972;-75
2022/06/15 10:48:58;;;;;;;4.38;0.75;;;;;;;44.41;11.54;100654.91;6130100;23;20002;-75
2022/06/15 10:52:23;;;;;;;3.47;1.00;;;;;;;46.75;10.24;100660.19;6108276;23;20489;-74
2022/06/15 11:02:14;;;;;;;2.22;0.85;;;;;;;49.00;8.17;100638.91;6130137;23;20341;-76
2022/06/15 11:04:48;;;;;;;1.85;0.70;;;;;;;48.62;8.07;100643.47;6072944;23;20491;-75
2022/06/15 11:07:34;;;;;;;2.55;0.90;;;;;;;48.65;8.06;100654.00;6128515;23;20097;-73
2022/06/15 11:10:32;;;;;;;2.75;1.10;;;;;;;49.81;7.92;100651.75;6129193;23;20002;-75
2022/06/15 11:20:06;;;;;;;;;;;;;;;;;;;;;
2022/06/15 11:23:53;;;;;;;0.90;0.52;;;;;;;49.55;8.40;100615.22;6041489;23;20082;-76
2022/06/15 11:30:51;;;;;;;1.00;0.63;;;;;;;55.56;5.30;100667.38;5847360;24;20019;-77
2022/06/15 11:36:59;;;;;;;2.25;0.88;;;;;;;54.69;4.99;100663.78;5766989;24;20018;-75
2022/06/15 11:39:59;;;;;;;;;;;;;;;;;;;;;
2022/06/15 11:42:59;;;;;;;1.42;0.80;;;;;;;54.61;4.99;100667.97;5845839;24;20096;-74
2022/06/15 11:46:25;;;;;;;1.77;0.80;;;;;;;53.51;5.19;100661.56;5988146;23;20338;-74
2022/06/15 11:49:09;;;;;;;2.75;1.10;;;;;;;52.09;5.62;100652.50;5944139;23;20418;-75
2022/06/15 11:51:47;;;;;;;;;;;;;;;;;;;;;
2022/06/15 11:54:20;;;;;;;0.70;0.43;;;;;;;54.05;5.75;100653.41;6153824;23;20080;-75
2022/06/15 12:00:38;;;;;;;1.92;0.70;;;;;;;53.59;5.10;100652.91;6158929;23;20071;-74
2022/06/15 12:04:02;;;;;;;;;;;;;;;;;;;;;
2022/06/15 12:07:02;;;;;;;;;;;;;;;;;;;;;
2022/06/15 12:09:49;;;;;;;1.25;0.80;;;;;;;56.72;4.98;100640.34;6160050;23;20106;-76
2022/06/15 12:12:41;;;;;;;1.75;0.70;;;;;;;58.07;4.17;100651.13;6131793;23;20433;-76
2022/06/15 12:19:12;;;;;;;4.65;0.77;;;;;;;57.39;3.34;100653.88;6069252;23;20007;-76
2022/06/15 12:22:20;;;;;;;;;;;;;;;;;;;;;
2022/06/15 12:25:27;;;;;;;;;;;;;;;;;;;;;
2022/06/15 12:29:02;;;;;;;;;;;;;;;;;;;;;
2022/06/15 12:32:02;;;;;;;2.17;0.82;;;;;;;56.14;4.04;100620.22;6116606;23;20089;-76
2022/06/15 12:35:26;;;;;;;;;;;;;;;;;;;;;
2022/06/15 12:45:50;;;;;;;2.75;0.98;;;;;;;56.80;3.25;100626.44;5972129;23;20019;-77
2022/06/15 12:48:55;;;;;;;1.90;0.90;;;;;;;55.74;3.84;100618.59;5932236;24;20122;-76
2022/06/15 12:51:54;;;;;;;1.25;0.50;;;;;;;55.50;3.96;100631.63;5932650;24;20016;-76
2022/06/15 12:55:10;;;;;;;1.35;0.50;;;;;;;57.39;3.77;100621.56;5930530;24;20021;-76
2022/06/15 12:58:27;;;;;;;;;;;;;;;;;;;;;
2022/06/15 13:01:18;;;;;;;2.03;0.88;;;;;;;57.05;3.52;100626.59;5931121;23;20084;-76
2022/06/15 13:03:55;;;;;;;1.80;0.63;;;;;;;55.52;4.13;100628.88;6130105;23;19986;-76
2022/06/15 13:06:36;;;;;;;2.88;1.27;;;;;;;55.01;4.26;100638.41;6153015;23;20002;-77
2022/06/15 13:09:23;;;;;;;2.72;1.10;;;;;;;54.87;4.02;100632.66;6104931;23;20036;-75
2022/06/15 13:12:10;;;;;;;2.10;0.68;;;;;;;55.11;4.45;100633.59;6103319;23;20044;-76
2022/06/15 13:14:44;;;;;;;0.82;0.73;;;;;;;56.19;3.83;100630.97;6129926;23;20094;-77
2022/06/15 13:17:17;;;;;;;2.38;1.05;;;;;;;56.37;3.64;100631.97;6128285;23;20421;-76
2022/06/15 13:19:46;;;;;;;4.30;0.70;;;;;;;56.12;3.38;100637.63;6129916;23;20100;-77
2022/06/15 13:22:22;;;;;;;2.35;0.65;;;;;;;57.07;3.54;100632.63;6103113;23;20081;-74
2022/06/15 13:25:10;;;;;;;1.05;0.77;;;;;;;58.44;2.91;100642.59;6102241;23;20096;-76
2022/06/15 13:27:44;;;;;;;2.58;0.90;;;;;;;57.63;2.86;100647.31;6126347;23;20005;-75
2022/06/15 13:37:35;;;;;;;0.73;0.60;;;;;;;51.01;5.17;100621.13;6127300;23;20516;-72
2022/06/15 13:40:16;;;;;;;0.85;0.70;;;;;;;54.16;5.06;100620.97;6125514;23;20013;-74
2022/06/15 16:14:33;;;;;;;1.37;0.90;;;;;;;49.64;6.99;100573.44;6107796;23;20032;-75
2022/06/15 16:17:16;;;;;;;2.42;0.82;;;;;;;48.67;7.06;100550.59;6160544;23;20022;-75
2022/06/15 16:23:17;;;;;;;1.77;0.80;;;;;;;43.78;9.51;100569.41;6162171;23;20066;-76
2022/06/15 16:32:54;;;;;;;;;;;;;;;;;;;;;
2022/06/15 16:35:53;;;;;;;2.15;0.95;;;;;;;46.93;8.63;100558.50;5995458;23;20067;-75
2022/06/15 16:38:20;;;;;;;5.35;1.00;;;;;;;47.05;8.45;100553.59;6119924;23;20392;-74
2022/06/15 16:40:48;;;;;;;1.67;0.80;;;;;;;47.21;7.91;100566.53;6146181;23;20001;-77
2022/06/15 16:43:16;;;;;;;1.45;0.73;;;;;;;47.34;7.59;100561.06;6146473;23;20024;-75
2022/06/15 16:52:48;;;;;;;;;;;;;;;;;;;;;
2022/06/15 17:12:40;;;;;;;1.90;0.98;;;;;;;43.63;10.02;100557.09;6130572;23;20033;-74
2022/06/15 17:26:00;;;;;;;2.30;0.95;;;;;;;40.13;12.48;100568.13;6068649;23;20453;-75
2022/06/15 17:28:36;;;;;;;2.50;0.90;;;;;;;40.60;12.02;100536.84;6043301;23;20015;-75
2022/06/15 17:31:04;;;;;;;2.35;1.00;;;;;;;41.17;11.93;100545.88;6069095;23;20010;-76
2022/06/15 17:33:32;;;;;;;0.73;0.60;;;;;;;42.00;11.73;100564.38;6067555;23;20683;-75
2022/06/15 17:35:59;;;;;;;1.48;0.60;;;;;;;42.20;11.31;100550.28;6102689;23;20029;-75
2022/06/15 17:38:32;;;;;;;1.02;0.60;;;;;;;42.25;11.18;100568.13;6158807;23;20101;-76
2022/06/15 17:40:58;;;;;;;1.98;0.85;;;;;;;41.23;11.71;100556.75;6158473;23;20005;-76
2022/06/15 18:04:12;;;;;;;;;;;;;;;;;;;;;
2022/06/15 18:13:54;;;;;;;2.30;0.50;;;;;;;30.98;18.04;100563.19;6017153;23;20034;-75
2022/06/15 18:16:32;;;;;;;1.27;0.50;;;;;;;30.08;18.56;100579.09;6129269;23;20465;-78
2022/06/15 18:22:50;;;;;;;2.30;0.80;;;;;;;28.32;24.17;100548.31;6039975;23;20017;-74
2022/06/15 18:25:29;;;;;;;;;;;;;;;;;;;;;
2022/06/15 18:47:41;;;;;;;7.63;1.20;;;;;;;24.47;34.76;100578.00;5934054;24;20501;-74
2022/06/15 18:50:07;;;;;;;;;;;;;;;24.45;34.84;100613.09;6016220;23;20450;-75
2022/06/15 18:52:33;;;;;;;4.00;1.20;;;;;;;24.39;35.00;100612.53;6035347;23;19914;-74
2022/06/15 18:55:00;;;;;;;2.00;1.30;;;;;;;24.28;35.94;100603.00;6010172;23;20007;-75
2022/06/15 18:57:27;;;;;;;5.25;1.35;;;;;;;24.23;35.57;100599.28;6034809;23;20019;-73
2022/06/15 19:00:14;;;;;;;;;;;;;;;;;;;;;
2022/06/15 19:02:43;;;;;;;2.47;1.30;;;;;;;24.08;35.76;100590.84;6010273;23;20069;-72
2022/06/15 19:05:09;;;;;;;2.88;0.80;;;;;;;24.15;35.42;100593.84;6003125;23;20092;-74
2022/06/15 19:07:42;;;;;;;2.95;1.27;;;;;;;24.28;36.18;100608.59;6076608;23;20018;-73
2022/06/15 19:10:10;;;;;;;2.50;0.90;;;;;;;24.26;35.88;100602.56;6100295;23;20006;-73
2022/06/15 19:12:36;;;;;;;1.95;0.70;;;;;;;24.16;36.09;100601.88;6148190;23;20445;-72
2022/06/15 19:15:06;;;;;;;3.28;1.10;;;;;;;24.13;36.50;100599.00;6153909;23;20079;-73
2022/06/15 19:17:33;;;;;;;4.55;0.90;;;;;;;24.14;35.02;100604.22;6129645;23;20028;-72
2022/06/15 19:20:03;;;;;;;2.35;0.80;;;;;;;24.23;35.41;100610.47;6130685;23;20012;-71
2022/06/15 19:22:29;;;;;;;1.77;0.70;;;;;;;24.22;33.88;100608.88;6153809;23;20333;-73
2022/06/15 19:25:01;;;;;;;1.65;0.95;;;;;;;24.16;34.75;100596.28;6129050;23;20005;-74
2022/06/15 19:27:29;;;;;;;1.95;0.77;;;;;;;24.04;34.90;100604.72;6130171;23;20055;-73
2022/06/15 19:29:55;;;;;;;1.75;0.90;;;;;;;24.03;34.83;100608.66;6129641;23;20005;-71
2022/06/15 19:32:31;;;;;;;5.28;1.13;;;;;;;23.88;34.69;100607.44;6130885;23;20059;-71
2022/06/15 19:34:57;;;;;;;2.65;1.20;;;;;;;23.73;35.65;100608.94;6156109;23;20017;-72
2022/06/15 19:37:23;;;;;;;1.30;0.60;;;;;;;23.57;35.78;100602.44;6131460;23;19994;-75
2022/06/15 19:39:49;;;;;;;0.93;0.77;;;;;;;23.58;36.00;100615.22;6133820;23;20392;-71
2022/06/15 19:42:16;;;;;;;1.95;0.90;;;;;;;23.43;35.31;100609.19;6133435;23;20029;-70
2022/06/15 19:44:43;;;;;;;1.25;0.70;;;;;;;23.44;35.53;100608.03;6157509;23;19997;-71
2022/06/15 19:47:28;;;;;;;;;;;;;;;;;;;;;
2022/06/15 19:54:12;;;;;;;;;;;;;;;;;;;;;
2022/06/15 19:56:50;;;;;;;3.80;1.00;;;;;;;22.25;39.11;100622.56;6134216;23;20012;-74
2022/06/15 20:00:12;;;;;;;;;;;;;;;;;;;;;
2022/06/15 20:02:48;;;;;;;1.77;0.90;;;;;;;21.50;41.72;100604.53;6156760;23;20013;-76
2022/06/15 20:05:18;;;;;;;1.90;0.98;;;;;;;21.40;42.20;100641.09;6158684;23;20036;-74
2022/06/15 20:08:08;;;;;;;2.13;0.93;;;;;;;21.18;42.20;100642.16;6111643;23;20053;-75
2022/06/15 20:14:03;;;;;;;1.67;0.80;;;;;;;20.67;44.57;100631.66;6157550;23;20083;-73
2022/06/15 20:16:59;;;;;;;;;;;;;;;;;;;;;
2022/06/15 21:44:06;;;;;;;2.42;1.15;;;;;;;16.42;56.94;100705.94;5720451;24;20042;-75
2022/06/15 21:47:22;;;;;;;2.67;1.17;;;;;;;16.48;56.78;100726.81;5882417;23;20006;-76
2022/06/15 21:50:33;;;;;;;;;;;;;;;;;;;;;
2022/06/15 21:52:59;;;;;;;3.70;1.20;;;;;;;16.32;56.03;100722.66;5983798;24;19982;-75
2022/06/15 21:55:25;;;;;;;3.17;1.10;;;;;;;16.47;55.70;100738.16;6108916;23;20025;-77
2022/06/15 21:57:51;;;;;;;0.82;0.77;;;;;;;16.54;55.12;100736.69;6131044;23;20006;-77
2022/06/15 22:00:21;;;;;;;3.22;1.10;;;;;;;16.58;54.90;100736.91;6078050;23;20018;-74
2022/06/15 22:02:47;;;;;;;1.27;0.98;;;;;;;16.54;54.59;100731.19;6130185;23;20065;-76
2022/06/15 22:05:16;;;;;;;1.70;1.00;;;;;;;16.50;54.56;100735.66;6104454;23;20005;-75
2022/06/15 22:07:44;;;;;;;1.52;0.90;;;;;;;16.44;54.79;100725.81;6128122;23;20034;-75
2022/06/15 22:10:12;;;;;;;1.98;1.00;;;;;;;16.44;54.45;100734.09;6129670;23;20500;-76
2022/06/15 22:12:38;;;;;;;1.75;0.77;;;;;;;16.37;54.44;100725.34;6102253;23;20014;-74
2022/06/15 22:15:05;;;;;;;1.45;0.80;;;;;;;16.38;54.75;100733.34;6131292;23;19998;-74
2022/06/15 22:17:31;;;;;;;1.00;0.70;;;;;;;16.30;54.33;100739.50;6131059;23;20014;-75
2022/06/15 22:20:06;;;;;;;2.05;1.10;;;;;;;16.30;54.50;100730.41;6128851;23;20426;-77
2022/06/15 22:22:44;;;;;;;;;;;;;;;;;;;;;
2022/06/15 22:25:19;;;;;;;1.75;0.90;;;;;;;16.26;54.42;100735.69;6129154;23;20089;-77
2022/06/15 22:27:45;;;;;;;1.77;0.88;;;;;;;16.12;54.77;100713.56;6103416;23;20006;-75
2022/06/15 22:30:32;;;;;;;1.27;0.80;;;;;;;16.11;54.61;100733.97;6102909;23;20016;-75
2022/06/15 22:32:57;;;;;;;3.35;0.90;;;;;;;16.07;53.84;100734.84;6104072;23;20097;-77
2022/06/15 22:35:26;;;;;;;1.13;0.93;;;;;;;16.17;53.44;100748.53;6125955;23;20321;-74
2022/06/15 22:38:13;;;;;;;3.95;0.70;;;;;;;16.16;52.74;100757.91;6105089;23;20033;-77
2022/06/15 22:40:40;;;;;;;1.02;0.70;;;;;;;16.17;52.46;100754.84;6103263;23;20014;-76
2022/06/15 22:43:35;;;;;;;5.38;1.00;;;;;;;16.04;52.05;100737.06;6129161;23;20006;-73
2022/06/15 22:46:13;;;;;;;;;;;;;;;16.10;52.52;100759.91;6131205;23;20006;-78
2022/06/15 22:51:35;;;;;;;;;;;;;;;;;;;;;
2022/06/15 22:54:19;;;;;;;;;;;;;;;;;;;;;
2022/06/15 22:56:53;;;;;;;3.45;1.10;;;;;;;15.66;54.64;100761.75;6130228;23;20045;-75
2022/06/15 22:59:43;;;;;;;4.35;1.60;;;;;;;15.38;55.49;100729.56;6129453;23;20005;-78
2022/06/15 23:02:08;;;;;;;3.33;1.15;;;;;;;15.36;56.02;100738.06;6129944;23;20029;-75
2022/06/15 23:04:36;;;;;;;2.88;1.10;;;;;;;15.30;55.98;100736.50;6104401;23;20009;-74
2022/06/15 23:07:02;;;;;;;2.58;1.23;;;;;;;15.28;56.20;100734.03;6104040;23;20006;-73
2022/06/15 23:09:29;;;;;;;4.20;1.27;;;;;;;15.27;56.61;100743.41;6132522;23;20008;-75
2022/06/15 23:12:07;;;;;;;;;;;;;;;;;;;;;
2022/06/15 23:14:42;;;;;;;2.08;0.90;;;;;;;14.93;56.86;100729.66;6106700;23;20077;-76
2022/06/15 23:17:17;;;;;;;4.82;1.00;;;;;;;14.92;57.33;100745.38;6104026;23;20001;-75
2022/06/15 23:20:13;;;;;;;1.92;1.15;;;;;;;14.90;57.97;100749.53;6105552;23;20091;-76
2022/06/15 23:22:47;;;;;;;1.77;1.00;;;;;;;14.76;57.75;100739.16;6105611;23;19998;-74
2022/06/15 23:25:15;;;;;;;1.95;1.00;;;;;;;14.79;57.54;100760.59;6131511;23;20008;-75
2022/06/15 23:27:46;;;;;;;;;;;;;;;14.73;57.56;100760.91;6108503;23;20049;-77
2022/06/15 23:30:16;;;;;;;2.20;1.13;;;;;;;14.59;58.27;100755.22;6106751;23;19913;-77
2022/06/15 23:35:47;;;;;;;;;;;;;;;;;;;;;
2022/06/15 23:38:13;;;;;;;1.23;1.05;;;;;;;14.22;59.41;100754.59;6130890;23;20086;-77
2022/06/15 23:40:44;;;;;;;1.90;1.00;;;;;;;14.10;58.89;100749.41;6082205;23;20093;-75
2022/06/15 23:43:12;;;;;;;3.15;0.90;;;;;;;14.06;59.05;100748.34;6083055;23;20005;-74
2022/06/15 23:48:22;;;;;;;2.80;1.08;;;;;;;14.14;57.37;100755.97;6132417;23;20012;-75
2022/06/15 23:50:49;;;;;;;2.40;0.98;;;;;;;14.10;57.64;100760.38;6130694;23;20005;-75
2022/06/15 23:53:20;;;;;;;4.05;1.20;;;;;;;14.07;57.83;100771.97;6107784;23;20006;-75
2022/06/15 23:55:50;;;;;;;2.33;1.00;;;;;;;13.92;58.33;100758.28;6130830;23;20002;-75
2022/06/15 23:58:15;;;;;;;3.38;0.80;;;;;;;13.93;58.31;100769.00;6134518;23;20005;-76
